Open Full Screen Window  High Contrast Mode
Wind Gusting 00 knots
05
May 22, 2015 6:00 AM EDT
Weather Information
Wind Direction
  230 °
Wind Speed
  05 kt (6 mph)
Wind Gust
  00 kt (0 mph)
Altimeter
30.17 in
Visibility
10 SM
Temperature
06° C
43° F
Dewpoint
05° C
41° F
Humidity
93%
1hr Rain Fall
00.00 in.
24hr Rain Fall
00.00 in.
Sky Condition
Clear
VFR

METAR KI69 221000Z AUTO 23005KT 10SM CLR 06/05 A3017 RMK AO1

*Background is not an actual portrayal of the airport.